createdAt,value
2023-05-23T00:00:54.232Z,38.07
2023-05-23T00:02:57.205Z,38.07
2023-05-23T00:04:59.837Z,38.31
2023-05-23T00:07:03.718Z,38.08
2023-05-23T00:09:06.308Z,38.00
2023-05-23T00:11:08.937Z,38.11
2023-05-23T00:13:13.326Z,37.90
2023-05-23T00:15:15.932Z,38.70
2023-05-23T00:17:18.596Z,38.22
2023-05-23T00:19:21.364Z,38.70
2023-05-23T00:21:24.497Z,38.43
2023-05-23T00:23:29.824Z,38.18
2023-05-23T00:25:34.437Z,38.42
2023-05-23T00:27:37.249Z,38.23
2023-05-23T00:29:39.854Z,38.20
2023-05-23T00:31:46.800Z,38.35
2023-05-23T00:33:49.732Z,38.35
2023-05-23T00:35:52.569Z,38.43
2023-05-23T00:37:55.786Z,38.45
2023-05-23T00:39:58.409Z,38.42
2023-05-23T00:42:05.720Z,38.23
2023-05-23T00:44:10.152Z,38.56
2023-05-23T00:46:13.265Z,39.00
2023-05-23T00:48:16.497Z,38.75
2023-05-23T00:50:19.845Z,38.48
2023-05-23T00:52:22.486Z,38.47
2023-05-23T00:54:27.541Z,38.48
2023-05-23T00:56:30.647Z,38.39
2023-05-23T00:58:33.413Z,38.56
2023-05-23T01:00:38.711Z,38.49
2023-05-23T01:02:47.519Z,38.76
2023-05-23T01:04:54.627Z,38.57
2023-05-23T01:06:58.086Z,38.47
2023-05-23T01:09:02.975Z,38.80
2023-05-23T01:11:17.048Z,39.06
2023-05-23T01:13:38.635Z,38.57
2023-05-23T01:15:49.887Z,38.67
2023-05-23T01:17:55.816Z,39.08
2023-05-23T01:20:01.420Z,39.19
2023-05-23T01:22:17.011Z,39.28
2023-05-23T01:24:52.701Z,39.33
2023-05-23T01:27:16.940Z,39.36
2023-05-23T01:29:29.958Z,39.37
2023-05-23T01:31:35.417Z,39.46
2023-05-23T01:33:40.309Z,39.57
2023-05-23T01:35:44.125Z,39.15
2023-05-23T01:37:46.719Z,40.40
2023-05-23T01:39:49.317Z,39.99
2023-05-23T01:41:53.245Z,39.46
2023-05-23T01:43:56.398Z,39.68
2023-05-23T01:46:00.983Z,39.51
2023-05-23T01:48:04.978Z,39.93
2023-05-23T01:50:09.416Z,39.94
2023-05-23T01:52:13.441Z,40.04
2023-05-23T01:54:17.292Z,40.35
2023-05-23T01:56:21.886Z,41.44
2023-05-23T01:58:24.558Z,41.44
2023-05-23T02:00:27.406Z,41.56
2023-05-23T02:02:30.245Z,41.72
2023-05-23T02:04:33.088Z,41.45
2023-05-23T02:06:36.077Z,41.36
2023-05-23T02:08:39.238Z,42.45
2023-05-23T02:10:41.795Z,41.50
2023-05-23T02:12:44.530Z,41.98
2023-05-23T02:14:47.297Z,41.80
2023-05-23T02:16:53.120Z,42.15
2023-05-23T02:18:59.592Z,42.09
2023-05-23T02:21:02.066Z,42.11
2023-05-23T02:23:05.866Z,42.35
2023-05-23T02:25:08.849Z,43.24
2023-05-23T02:27:11.645Z,44.20
2023-05-23T02:29:14.214Z,42.45
2023-05-23T02:31:17.516Z,41.81
2023-05-23T02:33:20.338Z,41.90
2023-05-23T02:35:22.932Z,41.85
2023-05-23T02:37:25.648Z,42.77
2023-05-23T02:39:28.402Z,42.37
2023-05-23T02:41:31.271Z,42.35
2023-05-23T02:43:33.965Z,41.75
2023-05-23T02:45:36.577Z,41.76
2023-05-23T02:47:39.184Z,42.12
2023-05-23T02:49:41.930Z,42.11
2023-05-23T02:51:44.566Z,42.11
2023-05-23T02:53:47.229Z,42.96
2023-05-23T02:55:49.924Z,42.50
2023-05-23T02:57:52.546Z,41.97
2023-05-23T02:59:55.209Z,42.93
2023-05-23T03:01:57.913Z,41.95
2023-05-23T03:04:00.630Z,43.04
2023-05-23T03:06:05.271Z,43.81
2023-05-23T03:08:08.758Z,44.35
2023-05-23T03:10:11.731Z,43.04
2023-05-23T03:12:14.732Z,42.73
2023-05-23T03:14:17.732Z,42.59
2023-05-23T03:16:20.364Z,43.08
2023-05-23T03:18:23.018Z,42.40
2023-05-23T03:20:25.701Z,42.58
2023-05-23T03:22:28.346Z,42.32
2023-05-23T03:24:32.102Z,44.89
2023-05-23T03:26:34.806Z,43.47
2023-05-23T03:28:37.530Z,43.31
2023-05-23T03:30:40.238Z,42.93
2023-05-23T03:32:43.100Z,44.79
2023-05-23T03:34:45.821Z,43.18
2023-05-23T03:36:48.478Z,43.81
2023-05-23T03:38:51.149Z,45.06
2023-05-23T03:40:54.210Z,45.30
2023-05-23T03:43:06.933Z,43.36
2023-05-23T03:45:09.828Z,43.88
2023-05-23T03:47:12.480Z,43.59
2023-05-23T03:49:15.517Z,43.94
2023-05-23T03:51:18.522Z,44.16
2023-05-23T03:53:21.257Z,44.85
2023-05-23T03:55:25.655Z,44.76
2023-05-23T03:57:28.478Z,44.23
2023-05-23T03:59:31.080Z,45.06
2023-05-23T04:01:33.680Z,44.00
2023-05-23T04:03:36.847Z,42.99
2023-05-23T04:05:39.782Z,43.89
2023-05-23T04:07:43.824Z,43.63
2023-05-23T04:09:46.576Z,43.41
2023-05-23T04:11:49.294Z,44.03
2023-05-23T04:13:52.302Z,43.99
2023-05-23T04:15:57.922Z,44.53
2023-05-23T04:18:01.005Z,43.96
2023-05-23T04:20:04.034Z,44.03
2023-05-23T04:22:07.062Z,43.51
2023-05-23T04:24:09.697Z,42.99
2023-05-23T04:26:13.404Z,43.67
2023-05-23T04:28:17.850Z,42.88
2023-05-23T04:30:20.702Z,43.27
2023-05-23T04:32:23.386Z,44.26
2023-05-23T04:34:26.344Z,43.95
2023-05-23T04:36:30.352Z,44.83
2023-05-23T04:38:33.548Z,44.75
2023-05-23T04:40:36.885Z,45.40
2023-05-23T04:42:42.522Z,44.39
2023-05-23T04:44:45.077Z,43.54
2023-05-23T04:46:47.812Z,43.83
2023-05-23T04:48:50.788Z,42.63
2023-05-23T04:50:56.138Z,44.26
2023-05-23T04:52:59.090Z,43.91
2023-05-23T04:55:01.992Z,43.12
2023-05-23T04:57:07.307Z,43.23
2023-05-23T04:59:11.640Z,43.65
2023-05-23T05:01:14.378Z,42.74
2023-05-23T05:03:17.870Z,42.89
2023-05-23T05:05:20.573Z,42.48
2023-05-23T05:07:23.198Z,43.63
2023-05-23T05:09:26.083Z,43.28
2023-05-23T05:11:28.810Z,42.57
2023-05-23T05:13:31.367Z,42.31
2023-05-23T05:15:33.892Z,41.71
2023-05-23T05:17:38.242Z,42.11
2023-05-23T05:19:40.956Z,41.62
2023-05-23T05:21:43.504Z,40.89
2023-05-23T05:23:46.435Z,41.36
2023-05-23T05:25:48.995Z,42.19
2023-05-23T05:27:52.853Z,41.24
2023-05-23T05:30:04.033Z,41.09
2023-05-23T05:32:09.864Z,40.51
2023-05-23T05:34:12.858Z,41.04
2023-05-23T05:36:15.726Z,40.37
2023-05-23T05:38:18.545Z,41.64
2023-05-23T05:40:21.227Z,40.48
2023-05-23T05:42:24.195Z,40.95
2023-05-23T05:44:27.226Z,40.53
2023-05-23T05:46:29.921Z,40.38
2023-05-23T05:48:32.856Z,39.36
2023-05-23T05:50:35.481Z,41.28
2023-05-23T05:52:41.427Z,40.22
2023-05-23T05:54:44.276Z,40.50
2023-05-23T05:56:47.901Z,39.44
2023-05-23T05:58:50.582Z,38.63
2023-05-23T06:00:53.782Z,39.99
2023-05-23T06:02:57.734Z,40.14
2023-05-23T06:05:00.603Z,39.74
2023-05-23T06:07:03.361Z,38.63
2023-05-23T06:09:05.877Z,38.09
2023-05-23T06:11:08.613Z,36.85
2023-05-23T06:13:11.284Z,37.92
2023-05-23T06:15:14.813Z,38.09
2023-05-23T06:17:17.829Z,39.56
2023-05-23T06:19:20.626Z,37.47
2023-05-23T06:21:23.319Z,37.25
2023-05-23T06:23:25.875Z,37.28
2023-05-23T06:25:28.558Z,37.25
2023-05-23T06:27:31.154Z,37.45
2023-05-23T06:29:35.937Z,37.86
2023-05-23T06:31:38.575Z,37.90
2023-05-23T06:33:41.131Z,36.48
2023-05-23T06:35:43.813Z,36.34
2023-05-23T06:37:46.631Z,37.37
2023-05-23T06:39:49.300Z,38.15
2023-05-23T06:41:51.866Z,38.01
2023-05-23T06:43:55.940Z,37.43
2023-05-23T06:45:58.521Z,37.04
2023-05-23T06:48:01.478Z,37.63
2023-05-23T06:50:04.858Z,38.50
2023-05-23T06:52:08.115Z,37.64
2023-05-23T06:54:11.695Z,37.44
2023-05-23T06:56:14.449Z,37.73
2023-05-23T06:58:17.060Z,35.90
2023-05-23T07:00:19.978Z,36.56
2023-05-23T07:02:23.255Z,36.25
2023-05-23T07:04:25.949Z,35.73
2023-05-23T07:06:28.643Z,35.04
2023-05-23T07:08:31.340Z,34.61
2023-05-23T07:10:35.431Z,34.94
2023-05-23T07:12:38.033Z,34.82
2023-05-23T07:14:40.837Z,34.33
2023-05-23T07:16:43.442Z,34.81
2023-05-23T07:18:46.139Z,35.30
2023-05-23T07:20:48.923Z,36.14
2023-05-23T07:22:51.796Z,33.70
2023-05-23T07:24:54.389Z,34.43
2023-05-23T07:26:57.186Z,33.94
2023-05-23T07:28:59.797Z,30.37
2023-05-23T07:31:02.429Z,31.47
2023-05-23T07:33:05.099Z,31.18
2023-05-23T07:35:08.034Z,31.19
2023-05-23T07:37:10.686Z,31.77
2023-05-23T07:39:14.934Z,30.92
2023-05-23T07:41:17.940Z,31.67
2023-05-23T07:43:20.645Z,30.75
2023-05-23T07:45:23.387Z,31.42
2023-05-23T07:47:26.021Z,30.81
2023-05-23T07:49:28.563Z,30.74
2023-05-23T07:51:31.900Z,30.99
2023-05-23T07:53:35.245Z,30.64
2023-05-23T07:55:37.938Z,30.55
2023-05-23T07:57:40.718Z,29.90
2023-05-23T07:59:43.362Z,30.02
2023-05-23T08:01:46.162Z,29.06
2023-05-23T08:03:48.883Z,28.97
2023-05-23T08:05:51.884Z,28.54
2023-05-23T08:07:55.303Z,29.01
2023-05-23T08:09:58.057Z,28.72
2023-05-23T08:12:00.971Z,28.69
2023-05-23T08:14:03.925Z,27.83
2023-05-23T08:16:06.661Z,29.25
2023-05-23T08:18:09.396Z,29.71
2023-05-23T08:20:12.444Z,28.45
2023-05-23T08:22:15.273Z,29.07
2023-05-23T08:24:17.945Z,27.05
2023-05-23T08:26:20.726Z,27.25
2023-05-23T08:28:23.557Z,29.00
2023-05-23T08:30:27.644Z,28.88
2023-05-23T08:32:30.308Z,28.29
2023-05-23T08:34:33.357Z,28.03
2023-05-23T08:36:36.928Z,27.41
2023-05-23T08:38:39.674Z,27.73
2023-05-23T08:40:49.655Z,27.89
2023-05-23T08:42:52.795Z,27.75
2023-05-23T08:44:55.446Z,26.83
2023-05-23T08:47:05.633Z,27.37
2023-05-23T08:49:08.966Z,26.66
2023-05-23T08:51:14.230Z,27.10
2023-05-23T08:53:20.857Z,27.31
2023-05-23T08:55:30.370Z,27.31
2023-05-23T08:57:34.264Z,26.40
2023-05-23T08:59:39.344Z,27.45
2023-05-23T09:01:44.125Z,26.99
2023-05-23T09:03:50.516Z,25.38
2023-05-23T09:05:54.742Z,26.70
2023-05-23T09:07:57.365Z,27.15
2023-05-23T09:10:00.161Z,27.39
2023-05-23T09:12:03.582Z,25.40
2023-05-23T09:14:08.240Z,24.50
2023-05-23T09:16:12.908Z,25.46
2023-05-23T09:18:15.698Z,23.67
2023-05-23T09:20:18.530Z,23.96
2023-05-23T09:22:27.801Z,25.88
2023-05-23T09:24:39.388Z,25.45
2023-05-23T09:26:42.121Z,25.14
2023-05-23T09:28:45.285Z,26.02
2023-05-23T09:30:48.057Z,26.07
2023-05-23T09:33:05.635Z,24.76
2023-05-23T09:35:12.552Z,23.89
2023-05-23T09:37:19.656Z,24.43
2023-05-23T09:39:22.436Z,24.23
2023-05-23T09:41:25.296Z,24.18
2023-05-23T09:43:29.237Z,24.45
2023-05-23T09:45:32.725Z,24.74
2023-05-23T09:47:35.359Z,22.92
2023-05-23T09:49:41.633Z,24.86
2023-05-23T09:51:44.322Z,25.91
2023-05-23T09:53:47.498Z,25.50
2023-05-23T09:55:55.905Z,24.43
2023-05-23T09:58:00.104Z,24.54
2023-05-23T10:00:11.171Z,24.86
2023-05-23T10:02:17.549Z,24.36
2023-05-23T10:04:25.252Z,23.98
2023-05-23T10:06:42.118Z,24.32
2023-05-23T10:08:50.668Z,27.17
2023-05-23T10:11:26.133Z,27.10
2023-05-23T10:13:29.511Z,25.22
2023-05-23T10:15:40.456Z,24.75
2023-05-23T10:17:57.051Z,25.48
2023-05-23T10:20:09.162Z,25.31
2023-05-23T10:22:16.685Z,25.19
2023-05-23T10:24:20.805Z,26.21
2023-05-23T10:26:23.635Z,26.32
2023-05-23T10:28:27.437Z,24.95
2023-05-23T10:30:30.106Z,26.34
2023-05-23T10:32:34.106Z,26.80
2023-05-23T10:34:57.979Z,24.65
2023-05-23T10:37:06.477Z,24.24
2023-05-23T10:39:31.198Z,25.98
2023-05-23T10:41:49.406Z,25.54
2023-05-23T10:44:00.845Z,24.25
2023-05-23T10:46:03.717Z,24.43
2023-05-23T10:48:21.964Z,26.54
2023-05-23T10:50:35.938Z,25.25
2023-05-23T10:52:41.305Z,24.74
2023-05-23T10:54:45.541Z,23.96
2023-05-23T10:57:03.245Z,26.82
2023-05-23T10:59:10.800Z,25.83
2023-05-23T11:01:18.269Z,22.27
2023-05-23T11:03:48.597Z,21.59
2023-05-23T11:05:55.188Z,21.68
2023-05-23T11:08:13.915Z,20.73
2023-05-23T11:10:20.293Z,22.71
2023-05-23T11:12:38.345Z,23.41
2023-05-23T11:14:46.648Z,22.56
2023-05-23T11:16:49.997Z,21.86
2023-05-23T11:18:53.098Z,20.54
2023-05-23T11:20:55.929Z,19.62
2023-05-23T11:23:03.057Z,24.14
2023-05-23T11:25:10.603Z,21.12
2023-05-23T11:27:13.544Z,22.73
2023-05-23T11:29:16.810Z,22.08
2023-05-23T11:31:19.564Z,24.02
2023-05-23T11:33:22.286Z,22.52
2023-05-23T11:35:25.088Z,21.83
2023-05-23T11:37:28.311Z,21.82
2023-05-23T11:39:31.002Z,23.21
2023-05-23T11:41:35.974Z,24.78
2023-05-23T11:43:50.173Z,23.91
2023-05-23T11:45:52.905Z,21.69
2023-05-23T11:47:56.120Z,20.36
2023-05-23T11:50:01.389Z,20.97
2023-05-23T11:52:06.701Z,21.15
2023-05-23T11:54:09.399Z,21.83
2023-05-23T11:56:12.152Z,21.10
2023-05-23T11:58:15.044Z,21.10
2023-05-23T12:00:19.151Z,21.85
2023-05-23T12:02:25.356Z,21.87
2023-05-23T12:04:28.402Z,21.48
2023-05-23T12:06:32.941Z,19.50
2023-05-23T12:08:35.527Z,19.35
2023-05-23T12:10:38.240Z,20.88
2023-05-23T12:12:42.843Z,21.77
2023-05-23T12:14:45.622Z,20.73
2023-05-23T12:16:48.686Z,20.15
2023-05-23T12:18:53.422Z,19.46
2023-05-23T12:20:56.166Z,18.79
2023-05-23T12:22:58.824Z,18.62
2023-05-23T12:25:01.849Z,19.34
2023-05-23T12:27:05.377Z,18.57
2023-05-23T12:29:08.041Z,19.01
2023-05-23T12:31:14.288Z,19.74
2023-05-23T12:33:19.011Z,20.38
2023-05-23T12:35:22.240Z,19.87
2023-05-23T12:37:25.973Z,19.32
2023-05-23T12:39:28.933Z,19.38
2023-05-23T12:41:33.420Z,20.38
2023-05-23T12:43:49.315Z,21.33
2023-05-23T12:45:51.916Z,20.42
2023-05-23T12:47:54.633Z,21.56
2023-05-23T12:49:57.450Z,20.80
2023-05-23T12:52:00.040Z,21.25
2023-05-23T12:54:02.729Z,20.81
2023-05-23T12:56:06.193Z,20.70
2023-05-23T12:58:08.755Z,20.71
2023-05-23T13:00:12.833Z,20.29
2023-05-23T13:02:15.796Z,21.41
2023-05-23T13:04:18.792Z,21.27
2023-05-23T13:06:21.875Z,19.42
2023-05-23T13:08:25.280Z,19.57
2023-05-23T13:10:28.973Z,20.74
2023-05-23T13:12:34.478Z,18.79
2023-05-23T13:14:37.397Z,20.46
2023-05-23T13:16:41.013Z,18.61
2023-05-23T13:18:43.962Z,18.03
2023-05-23T13:20:46.975Z,18.42
2023-05-23T13:22:50.144Z,18.57
2023-05-23T13:24:52.780Z,19.90
2023-05-23T13:26:55.271Z,19.17
2023-05-23T13:28:58.251Z,17.94
2023-05-23T13:31:01.844Z,17.69
2023-05-23T13:33:05.233Z,18.16
2023-05-23T13:35:08.291Z,17.86
2023-05-23T13:37:11.020Z,19.17
2023-05-23T13:39:14.588Z,18.40
2023-05-23T13:41:17.782Z,19.43
2023-05-23T13:43:20.517Z,19.05
2023-05-23T13:45:23.527Z,19.49
2023-05-23T13:47:26.652Z,20.57
2023-05-23T13:49:29.426Z,20.53
2023-05-23T13:51:32.764Z,18.85
2023-05-23T13:53:35.803Z,19.00
2023-05-23T13:55:38.997Z,20.36
2023-05-23T13:57:41.716Z,20.32
2023-05-23T13:59:44.365Z,19.72
2023-05-23T14:01:47.979Z,18.37
2023-05-23T14:03:50.823Z,18.01
2023-05-23T14:05:53.606Z,17.75
2023-05-23T14:07:56.527Z,19.13
2023-05-23T14:10:00.021Z,17.82
2023-05-23T14:12:03.970Z,16.98
2023-05-23T14:14:06.730Z,18.00
2023-05-23T14:16:09.435Z,18.59
2023-05-23T14:18:12.088Z,18.23
2023-05-23T14:20:14.698Z,18.05
2023-05-23T14:22:17.412Z,17.70
2023-05-23T14:24:20.123Z,18.95
2023-05-23T14:26:22.750Z,18.22
2023-05-23T14:28:25.377Z,20.00
2023-05-23T14:30:27.991Z,19.44
2023-05-23T14:32:33.408Z,18.37
2023-05-23T14:34:36.274Z,18.28
2023-05-23T14:36:38.867Z,17.54
2023-05-23T14:38:41.950Z,17.60
2023-05-23T14:40:45.682Z,17.96
2023-05-23T14:42:48.821Z,18.35
2023-05-23T14:44:53.739Z,18.31
2023-05-23T14:46:56.478Z,20.50
2023-05-23T14:48:59.030Z,18.98
2023-05-23T14:51:02.089Z,18.08
2023-05-23T14:53:04.958Z,18.00
2023-05-23T14:55:07.961Z,18.84
2023-05-23T14:57:10.842Z,17.58
2023-05-23T14:59:13.522Z,18.91
2023-05-23T15:01:16.671Z,20.09
2023-05-23T15:03:19.645Z,20.28
2023-05-23T15:05:22.418Z,18.84
2023-05-23T15:07:25.093Z,19.08
2023-05-23T15:09:28.561Z,20.19
2023-05-23T15:11:32.361Z,20.01
2023-05-23T15:13:35.096Z,20.02
2023-05-23T15:15:37.989Z,20.90
2023-05-23T15:17:40.571Z,19.86
2023-05-23T15:19:44.808Z,23.13
2023-05-23T15:21:50.950Z,23.01
2023-05-23T15:23:54.547Z,20.85
2023-05-23T15:25:57.256Z,21.87
2023-05-23T15:27:59.943Z,23.25
2023-05-23T15:30:03.701Z,22.23
2023-05-23T15:32:09.383Z,22.46
2023-05-23T15:34:12.015Z,23.56
2023-05-23T15:36:14.899Z,23.12
2023-05-23T15:38:19.853Z,24.62
2023-05-23T15:40:23.005Z,26.06
2023-05-23T15:42:25.635Z,25.88
2023-05-23T15:44:28.355Z,25.79
2023-05-23T15:46:31.111Z,27.30
2023-05-23T15:48:33.890Z,26.30
2023-05-23T15:50:37.105Z,26.19
2023-05-23T15:52:39.740Z,26.38
2023-05-23T15:54:42.408Z,25.25
2023-05-23T15:56:45.066Z,25.47
2023-05-23T15:58:47.680Z,27.18
2023-05-23T16:00:50.290Z,25.75
2023-05-23T16:02:53.250Z,27.58
2023-05-23T16:04:57.765Z,28.63
2023-05-23T16:07:00.360Z,26.91
2023-05-23T16:09:03.299Z,28.16
2023-05-23T16:11:05.955Z,28.24
2023-05-23T16:13:09.289Z,28.66
2023-05-23T16:15:12.134Z,28.79
2023-05-23T16:17:14.729Z,28.97
2023-05-23T16:19:17.365Z,29.37
2023-05-23T16:21:21.032Z,30.47
2023-05-23T16:23:24.392Z,29.52
2023-05-23T16:25:27.077Z,30.51
2023-05-23T16:27:29.732Z,30.79
2023-05-23T16:29:32.343Z,31.37
2023-05-23T16:31:35.754Z,30.87
2023-05-23T16:33:38.520Z,30.52
2023-05-23T16:35:41.517Z,29.74
2023-05-23T16:37:44.602Z,29.02
2023-05-23T16:39:47.540Z,31.84
2023-05-23T16:41:50.104Z,31.26
2023-05-23T16:43:52.760Z,31.45
2023-05-23T16:45:55.650Z,32.14
2023-05-23T16:47:58.452Z,31.85
2023-05-23T16:50:01.198Z,32.57
2023-05-23T16:52:06.043Z,31.97
2023-05-23T16:54:09.277Z,31.87
2023-05-23T16:56:11.950Z,30.86
2023-05-23T16:58:14.745Z,32.44
2023-05-23T17:00:17.579Z,32.46
2023-05-23T17:02:20.250Z,31.62
2023-05-23T17:04:23.080Z,32.47
2023-05-23T17:06:25.836Z,32.99
2023-05-23T17:08:28.436Z,32.77
2023-05-23T17:10:31.347Z,34.25
2023-05-23T17:12:34.003Z,32.87
2023-05-23T17:14:36.946Z,32.98
2023-05-23T17:16:39.717Z,33.40
2023-05-23T17:18:42.414Z,32.88
2023-05-23T17:20:45.044Z,33.52
2023-05-23T17:22:47.975Z,34.24
2023-05-23T17:24:50.588Z,32.65
2023-05-23T17:26:53.197Z,33.90
2023-05-23T17:28:56.057Z,34.32
2023-05-23T17:30:58.644Z,33.82
2023-05-23T17:33:01.467Z,33.69
2023-05-23T17:35:04.518Z,33.83
2023-05-23T17:37:07.172Z,34.12
2023-05-23T17:39:09.965Z,33.82
2023-05-23T17:41:14.191Z,33.67
2023-05-23T17:43:16.841Z,33.64
2023-05-23T17:45:19.482Z,34.32
2023-05-23T17:47:22.185Z,33.91
2023-05-23T17:49:25.015Z,33.69
2023-05-23T17:51:27.612Z,34.70
2023-05-23T17:53:30.633Z,34.36
2023-05-23T17:55:33.612Z,35.46
2023-05-23T17:57:36.362Z,35.74
2023-05-23T17:59:38.923Z,34.58
2023-05-23T18:01:41.784Z,34.75
2023-05-23T18:03:44.574Z,34.73
2023-05-23T18:05:47.304Z,35.70
2023-05-23T18:07:50.619Z,36.68
2023-05-23T18:09:53.278Z,36.03
2023-05-23T18:11:56.478Z,36.11
2023-05-23T18:13:59.222Z,36.34
2023-05-23T18:16:01.810Z,36.19
2023-05-23T18:18:04.766Z,36.74
2023-05-23T18:20:08.216Z,37.26
2023-05-23T18:22:11.058Z,37.43
2023-05-23T18:24:13.731Z,37.02
2023-05-23T18:26:16.537Z,38.00
2023-05-23T18:28:19.175Z,38.23
2023-05-23T18:30:21.927Z,38.78
2023-05-23T18:32:24.733Z,38.96
2023-05-23T18:34:29.135Z,38.02
2023-05-23T18:36:32.440Z,38.94
2023-05-23T18:38:36.018Z,39.02
2023-05-23T18:40:38.679Z,39.03
2023-05-23T18:42:41.585Z,39.39
2023-05-23T18:44:44.380Z,40.06
2023-05-23T18:46:47.181Z,38.90
2023-05-23T18:48:50.118Z,39.32
2023-05-23T18:50:52.908Z,39.23
2023-05-23T18:52:55.752Z,40.18
2023-05-23T18:54:58.773Z,39.76
2023-05-23T18:57:01.740Z,40.01
2023-05-23T18:59:04.505Z,39.76
2023-05-23T19:01:07.338Z,39.79
2023-05-23T19:03:10.416Z,39.57
2023-05-23T19:05:13.284Z,39.88
2023-05-23T19:07:16.399Z,40.35
2023-05-23T19:09:19.183Z,40.40
2023-05-23T19:11:22.739Z,40.57
2023-05-23T19:13:26.283Z,39.97
2023-05-23T19:15:29.075Z,40.92
2023-05-23T19:17:31.673Z,40.38
2023-05-23T19:19:37.743Z,39.47
2023-05-23T19:21:40.646Z,39.51
2023-05-23T19:23:43.360Z,40.12
2023-05-23T19:25:46.056Z,41.26
2023-05-23T19:27:48.969Z,40.63
2023-05-23T19:29:51.528Z,40.13
2023-05-23T19:31:54.998Z,40.83
2023-05-23T19:33:57.718Z,41.00
2023-05-23T19:36:00.405Z,41.65
2023-05-23T19:38:03.093Z,41.21
2023-05-23T19:40:06.432Z,41.41
2023-05-23T19:42:09.006Z,41.00
2023-05-23T19:44:12.135Z,41.12
2023-05-23T19:46:15.870Z,40.93
2023-05-23T19:48:18.971Z,41.43
2023-05-23T19:50:22.264Z,40.91
2023-05-23T19:52:25.060Z,41.38
2023-05-23T19:54:28.319Z,41.86
2023-05-23T19:56:31.323Z,41.43
2023-05-23T19:58:36.308Z,41.48
2023-05-23T20:00:39.069Z,41.29
2023-05-23T20:02:42.703Z,42.76
2023-05-23T20:04:45.532Z,41.34
2023-05-23T20:06:48.180Z,41.41
2023-05-23T20:08:50.794Z,41.26
2023-05-23T20:10:53.928Z,41.24
2023-05-23T20:12:56.622Z,41.54
2023-05-23T20:14:59.459Z,41.82
2023-05-23T20:17:02.250Z,42.08
2023-05-23T20:19:05.459Z,41.92
2023-05-23T20:21:08.155Z,42.12
2023-05-23T20:23:10.924Z,42.14
2023-05-23T20:25:13.587Z,43.39
2023-05-23T20:27:16.178Z,42.64
2023-05-23T20:29:18.844Z,42.36
2023-05-23T20:31:21.580Z,43.36
2023-05-23T20:33:25.000Z,43.00
2023-05-23T20:35:27.962Z,42.68
2023-05-23T20:37:30.610Z,42.75
2023-05-23T20:39:33.175Z,42.31
2023-05-23T20:41:35.827Z,42.02
2023-05-23T20:43:39.742Z,42.53
2023-05-23T20:45:43.084Z,42.51
2023-05-23T20:47:46.546Z,42.76
2023-05-23T20:49:49.311Z,42.83
2023-05-23T20:51:51.990Z,43.79
2023-05-23T20:53:54.829Z,43.30
2023-05-23T20:55:57.509Z,42.66
2023-05-23T20:58:00.214Z,42.91
2023-05-23T21:00:13.228Z,43.71
2023-05-23T21:02:16.177Z,43.21
2023-05-23T21:04:19.038Z,43.11
2023-05-23T21:06:22.569Z,42.98
2023-05-23T21:08:25.299Z,44.12
2023-05-23T21:10:27.963Z,43.32
2023-05-23T21:12:31.201Z,43.63
2023-05-23T21:14:33.919Z,43.43
2023-05-23T21:16:37.018Z,44.36
2023-05-23T21:18:39.588Z,43.82
2023-05-23T21:20:42.744Z,43.83
2023-05-23T21:22:45.708Z,43.53
2023-05-23T21:24:48.422Z,43.47
2023-05-23T21:26:51.602Z,43.29
2023-05-23T21:28:54.257Z,43.77
2023-05-23T21:30:56.963Z,44.16
2023-05-23T21:32:59.751Z,43.69
2023-05-23T21:35:02.617Z,44.17
2023-05-23T21:37:07.689Z,43.83
2023-05-23T21:39:10.541Z,43.86
2023-05-23T21:41:13.247Z,44.16
2023-05-23T21:43:15.808Z,44.14
2023-05-23T21:45:18.418Z,44.11
2023-05-23T21:47:22.088Z,44.04
2023-05-23T21:49:24.764Z,44.25
2023-05-23T21:51:27.731Z,43.98
2023-05-23T21:53:30.475Z,44.62
2023-05-23T21:55:33.076Z,44.19
2023-05-23T21:57:35.728Z,44.13
2023-05-23T21:59:38.667Z,44.63
2023-05-23T22:01:41.353Z,44.26
2023-05-23T22:03:44.095Z,44.53
2023-05-23T22:05:46.876Z,44.99
2023-05-23T22:07:49.462Z,44.88
2023-05-23T22:09:53.575Z,44.74
2023-05-23T22:11:56.724Z,45.25
2023-05-23T22:14:01.232Z,45.61
2023-05-23T22:16:05.513Z,45.19
2023-05-23T22:18:08.273Z,46.13
2023-05-23T22:20:14.829Z,45.37
2023-05-23T22:22:17.873Z,45.89
2023-05-23T22:24:20.541Z,45.35
2023-05-23T22:26:23.528Z,45.08
2023-05-23T22:28:26.318Z,45.31
2023-05-23T22:30:28.998Z,45.30
2023-05-23T22:32:31.636Z,46.30
2023-05-23T22:34:34.250Z,45.34
2023-05-23T22:36:37.053Z,45.29
2023-05-23T22:38:39.660Z,45.63
2023-05-23T22:40:42.412Z,45.57
2023-05-23T22:42:45.233Z,45.34
2023-05-23T22:44:48.304Z,45.51
2023-05-23T22:46:52.258Z,45.83
2023-05-23T22:48:55.434Z,45.90
2023-05-23T22:50:58.064Z,46.28
2023-05-23T22:53:01.122Z,46.54
2023-05-23T22:55:06.173Z,45.88
2023-05-23T22:57:09.922Z,46.17
2023-05-23T22:59:12.497Z,45.66
2023-05-23T23:01:15.932Z,46.11
2023-05-23T23:03:18.872Z,45.96
2023-05-23T23:05:22.432Z,46.67
2023-05-23T23:07:25.224Z,46.42
2023-05-23T23:09:28.214Z,46.10
2023-05-23T23:11:31.117Z,46.36
2023-05-23T23:13:33.873Z,46.95
2023-05-23T23:15:36.966Z,47.35
2023-05-23T23:17:39.767Z,47.00
2023-05-23T23:19:42.537Z,46.93
2023-05-23T23:21:45.447Z,47.26
2023-05-23T23:23:48.087Z,46.51
2023-05-23T23:25:50.941Z,46.42
2023-05-23T23:27:53.579Z,46.37
2023-05-23T23:29:57.455Z,46.30
2023-05-23T23:32:00.222Z,46.42
2023-05-23T23:34:02.916Z,46.14
2023-05-23T23:36:06.507Z,47.02
2023-05-23T23:38:09.171Z,46.62
2023-05-23T23:40:12.408Z,46.34
2023-05-23T23:42:15.063Z,46.41
2023-05-23T23:44:17.714Z,46.83
2023-05-23T23:46:21.079Z,46.78
2023-05-23T23:48:23.738Z,46.86
2023-05-23T23:50:27.072Z,46.63
2023-05-23T23:52:30.677Z,47.04
2023-05-23T23:54:33.305Z,47.36
2023-05-23T23:56:36.656Z,46.79
2023-05-23T23:58:39.200Z,46.94
